sensor_id;sensor_type;location;lat;lon;timestamp;pressure;altitude;pressure_sealevel;temperature;humidity
45345;BME280;31078;48.304;11.896;2022-12-07T00:01:04;96197.56;;;1.68;99.08
45345;BME280;31078;48.304;11.896;2022-12-07T00:03:31;96199.97;;;1.65;99.41
45345;BME280;31078;48.304;11.896;2022-12-07T00:05:58;96198.09;;;1.70;99.09
45345;BME280;31078;48.304;11.896;2022-12-07T00:08:26;96195.13;;;1.72;99.58
45345;BME280;31078;48.304;11.896;2022-12-07T00:10:55;96195.41;;;1.65;99.58
45345;BME280;31078;48.304;11.896;2022-12-07T00:13:29;96192.22;;;1.73;99.29
45345;BME280;31078;48.304;11.896;2022-12-07T00:16:00;96193.03;;;1.79;98.85
45345;BME280;31078;48.304;11.896;2022-12-07T00:18:26;96193.28;;;1.82;98.69
45345;BME280;31078;48.304;11.896;2022-12-07T00:20:59;96189.78;;;1.87;98.47
45345;BME280;31078;48.304;11.896;2022-12-07T00:23:26;96185.78;;;1.90;97.83
45345;BME280;31078;48.304;11.896;2022-12-07T00:25:53;96184.97;;;1.84;97.35
45345;BME280;31078;48.304;11.896;2022-12-07T00:28:19;96183.09;;;1.79;97.76
45345;BME280;31078;48.304;11.896;2022-12-07T00:30:46;96188.44;;;1.74;97.95
45345;BME280;31078;48.304;11.896;2022-12-07T00:33:14;96188.19;;;1.81;98.02
45345;BME280;31078;48.304;11.896;2022-12-07T00:35:41;96188.44;;;1.74;98.38
45345;BME280;31078;48.304;11.896;2022-12-07T00:38:09;96183.06;;;1.69;98.74
45345;BME280;31078;48.304;11.896;2022-12-07T00:40:36;96188.44;;;1.74;98.76
45345;BME280;31078;48.304;11.896;2022-12-07T00:43:02;96185.22;;;1.82;98.52
45345;BME280;31078;48.304;11.896;2022-12-07T00:45:29;96190.06;;;1.91;97.94
45345;BME280;31078;48.304;11.896;2022-12-07T00:47:55;96185.22;;;1.88;97.46
45345;BME280;31078;48.304;11.896;2022-12-07T00:50:23;96182.53;;;1.82;97.35
45345;BME280;31078;48.304;11.896;2022-12-07T00:52:53;96184.19;;;1.89;97.71
45345;BME280;31078;48.304;11.896;2022-12-07T00:55:22;96191.13;;;1.69;97.61
45345;BME280;31078;48.304;11.896;2022-12-07T00:57:48;96191.13;;;1.79;97.81
45345;BME280;31078;48.304;11.896;2022-12-07T01:00:15;96187.41;;;1.91;96.83
45345;BME280;31078;48.304;11.896;2022-12-07T01:02:42;96190.06;;;1.91;96.46
45345;BME280;31078;48.304;11.896;2022-12-07T01:05:09;96188.97;;;1.81;96.45
45345;BME280;31078;48.304;11.896;2022-12-07T01:07:36;96191.94;;;1.80;96.50
45345;BME280;31078;48.304;11.896;2022-12-07T01:10:04;96185.22;;;1.82;96.70
45345;BME280;31078;48.304;11.896;2022-12-07T01:12:31;96190.03;;;1.70;96.87
45345;BME280;31078;48.304;11.896;2022-12-07T01:14:58;96184.69;;;1.86;96.94
45345;BME280;31078;48.304;11.896;2022-12-07T01:17:28;96191.13;;;1.79;96.42
45345;BME280;31078;48.304;11.896;2022-12-07T01:19:54;96190.34;;;1.79;97.06
45345;BME280;31078;48.304;11.896;2022-12-07T01:22:21;96190.88;;;1.86;96.39
45345;BME280;31078;48.304;11.896;2022-12-07T01:24:49;96185.78;;;1.85;96.30
45345;BME280;31078;48.304;11.896;2022-12-07T01:27:16;96196.25;;;1.81;96.93
45345;BME280;31078;48.304;11.896;2022-12-07T01:29:42;96191.69;;;1.87;96.36
45345;BME280;31078;48.304;11.896;2022-12-07T01:32:10;96190.59;;;1.72;97.22
45345;BME280;31078;48.304;11.896;2022-12-07T01:34:37;96177.94;;;1.58;97.78
45345;BME280;31078;48.304;11.896;2022-12-07T01:37:04;96176.63;;;1.75;97.57
45345;BME280;31078;48.304;11.896;2022-12-07T01:39:30;96178.78;;;1.68;97.61
45345;BME280;31078;48.304;11.896;2022-12-07T01:41:58;96185.69;;;1.49;98.23
45345;BME280;31078;48.304;11.896;2022-12-07T01:44:31;96175.00;;;1.59;98.59
45345;BME280;31078;48.304;11.896;2022-12-07T01:46:59;96183.06;;;1.64;98.08
45345;BME280;31078;48.304;11.896;2022-12-07T01:49:29;96177.66;;;1.54;98.37
45345;BME280;31078;48.304;11.896;2022-12-07T01:52:09;96182.72;;;1.40;99.20
45345;BME280;31078;48.304;11.896;2022-12-07T01:54:39;96181.94;;;1.55;98.95
45345;BME280;31078;48.304;11.896;2022-12-07T01:57:08;96173.91;;;1.55;98.71
45345;BME280;31078;48.304;11.896;2022-12-07T01:59:35;96177.16;;;1.67;98.42
45345;BME280;31078;48.304;11.896;2022-12-07T02:02:07;96185.75;;;1.69;97.92
45345;BME280;31078;48.304;11.896;2022-12-07T02:04:38;96185.22;;;1.72;97.32
45345;BME280;31078;48.304;11.896;2022-12-07T02:07:06;96175.25;;;1.58;98.04
45345;BME280;31078;48.304;11.896;2022-12-07T02:09:33;96184.13;;;1.58;98.04
45345;BME280;31078;48.304;11.896;2022-12-07T02:11:59;96179.25;;;1.45;98.96
45345;BME280;31078;48.304;11.896;2022-12-07T02:14:28;96175.25;;;1.47;98.60
45345;BME280;31078;48.304;11.896;2022-12-07T02:17:06;96176.31;;;1.41;99.36
45345;BME280;31078;48.304;11.896;2022-12-07T02:20:05;96165.84;;;1.50;99.35
45345;BME280;31078;48.304;11.896;2022-12-07T02:23:04;96173.63;;;1.46;99.06
45345;BME280;31078;48.304;11.896;2022-12-07T02:25:52;96163.16;;;1.55;99.11
45345;BME280;31078;48.304;11.896;2022-12-07T02:28:28;96178.41;;;1.34;99.74
45345;BME280;31078;48.304;11.896;2022-12-07T02:31:02;96171.19;;;1.50;99.82
45345;BME280;31078;48.304;11.896;2022-12-07T02:33:33;96177.13;;;1.52;99.05
45345;BME280;31078;48.304;11.896;2022-12-07T02:36:06;96172.75;;;1.36;99.83
45345;BME280;31078;48.304;11.896;2022-12-07T02:38:38;96168.47;;;1.35;100.00
45345;BME280;31078;48.304;11.896;2022-12-07T02:41:10;96178.13;;;1.25;100.00
45345;BME280;31078;48.304;11.896;2022-12-07T02:43:40;96170.09;;;1.30;100.00
45345;BME280;31078;48.304;11.896;2022-12-07T02:46:13;96163.09;;;1.29;100.00
45345;BME280;31078;48.304;11.896;2022-12-07T02:48:41;96171.44;;;1.38;100.00
45345;BME280;31078;48.304;11.896;2022-12-07T02:51:09;96168.22;;;1.31;100.00
45345;BME280;31078;48.304;11.896;2022-12-07T02:53:40;96179.22;;;1.35;100.00
45345;BME280;31078;48.304;11.896;2022-12-07T02:56:12;96172.81;;;1.51;100.00
45345;BME280;31078;48.304;11.896;2022-12-07T02:58:48;96164.22;;;1.49;99.22
45345;BME280;31078;48.304;11.896;2022-12-07T03:01:28;96158.56;;;1.45;99.48
45345;BME280;31078;48.304;11.896;2022-12-07T03:04:03;96168.75;;;1.33;99.57
45345;BME280;31078;48.304;11.896;2022-12-07T03:06:39;96161.19;;;1.20;100.00
45345;BME280;31078;48.304;11.896;2022-12-07T03:09:14;96167.13;;;1.32;100.00
45345;BME280;31078;48.304;11.896;2022-12-07T03:11:44;96167.38;;;1.20;100.00
45345;BME280;31078;48.304;11.896;2022-12-07T03:14:15;96164.50;;;1.42;99.90
45345;BME280;31078;48.304;11.896;2022-12-07T03:16:52;96161.03;;;1.47;99.14
45345;BME280;31078;48.304;11.896;2022-12-07T03:19:20;96169.81;;;1.27;99.66
45345;BME280;31078;48.304;11.896;2022-12-07T03:21:51;96161.53;;;1.44;99.83
45345;BME280;31078;48.304;11.896;2022-12-07T03:24:31;96165.34;;;1.58;98.65
45345;BME280;31078;48.304;11.896;2022-12-07T03:27:03;96164.72;;;1.36;99.07
45345;BME280;31078;48.304;11.896;2022-12-07T03:29:35;96156.47;;;1.47;99.03
45345;BME280;31078;48.304;11.896;2022-12-07T03:32:08;96153.00;;;1.62;98.33
45345;BME280;31078;48.304;11.896;2022-12-07T03:34:45;96154.84;;;1.56;97.79
45345;BME280;31078;48.304;11.896;2022-12-07T03:37:16;96143.88;;;1.63;97.69
45345;BME280;31078;48.304;11.896;2022-12-07T03:39:48;96151.38;;;1.71;97.58
45345;BME280;31078;48.304;11.896;2022-12-07T03:42:17;96143.88;;;1.73;97.48
45345;BME280;31078;48.304;11.896;2022-12-07T03:44:44;96155.16;;;1.80;96.80
45345;BME280;31078;48.304;11.896;2022-12-07T03:47:15;96140.13;;;1.74;97.02
45345;BME280;31078;48.304;11.896;2022-12-07T03:49:50;96144.94;;;1.77;97.06
45345;BME280;31078;48.304;11.896;2022-12-07T03:52:23;96144.41;;;1.60;96.94
45345;BME280;31078;48.304;11.896;2022-12-07T03:54:57;96147.09;;;1.70;97.12
45345;BME280;31078;48.304;11.896;2022-12-07T03:57:27;96145.50;;;1.74;96.78
45345;BME280;31078;48.304;11.896;2022-12-07T03:59:55;96135.00;;;1.58;97.22
45345;BME280;31078;48.304;11.896;2022-12-07T04:02:26;96135.81;;;1.68;96.96
45345;BME280;31078;48.304;11.896;2022-12-07T04:04:53;96140.91;;;1.70;96.94
45345;BME280;31078;48.304;11.896;2022-12-07T04:07:21;96140.13;;;1.74;96.43
45345;BME280;31078;48.304;11.896;2022-12-07T04:09:47;96141.72;;;1.80;96.08
45345;BME280;31078;48.304;11.896;2022-12-07T04:12:14;96134.75;;;1.85;95.94
45345;BME280;31078;48.304;11.896;2022-12-07T04:14:41;96145.50;;;1.85;95.92
45345;BME280;31078;48.304;11.896;2022-12-07T04:17:08;96142.53;;;1.86;95.73
45345;BME280;31078;48.304;11.896;2022-12-07T04:19:36;96135.56;;;1.75;96.16
45345;BME280;31078;48.304;11.896;2022-12-07T04:22:04;96142.81;;;1.79;96.77
45345;BME280;31078;48.304;11.896;2022-12-07T04:24:31;96135.84;;;1.83;96.29
45345;BME280;31078;48.304;11.896;2022-12-07T04:26:57;96146.03;;;1.92;95.93
45345;BME280;31078;48.304;11.896;2022-12-07T04:29:25;96152.50;;;1.91;96.11
45345;BME280;31078;48.304;11.896;2022-12-07T04:31:52;96143.91;;;1.94;95.97
45345;BME280;31078;48.304;11.896;2022-12-07T04:34:19;96148.19;;;1.90;95.93
45345;BME280;31078;48.304;11.896;2022-12-07T04:36:47;96144.94;;;1.77;95.99
45345;BME280;31078;48.304;11.896;2022-12-07T04:39:19;96144.13;;;1.72;95.67
45345;BME280;31078;48.304;11.896;2022-12-07T04:41:48;96139.56;;;1.57;96.34
45345;BME280;31078;48.304;11.896;2022-12-07T04:44:15;96139.03;;;1.60;96.81
45345;BME280;31078;48.304;11.896;2022-12-07T04:46:43;96135.81;;;1.68;96.33
45345;BME280;31078;48.304;11.896;2022-12-07T04:49:11;96136.91;;;1.62;95.92
45345;BME280;31078;48.304;11.896;2022-12-07T04:51:38;96135.81;;;1.68;96.41
45345;BME280;31078;48.304;11.896;2022-12-07T04:54:06;96132.56;;;1.51;96.66
45345;BME280;31078;48.304;11.896;2022-12-07T04:56:33;96135.81;;;1.58;97.12
45345;BME280;31078;48.304;11.896;2022-12-07T04:59:01;96133.66;;;1.70;96.63
45345;BME280;31078;48.304;11.896;2022-12-07T05:01:31;96140.91;;;1.54;97.41
45345;BME280;31078;48.304;11.896;2022-12-07T05:03:58;96127.22;;;1.66;97.29
45345;BME280;31078;48.304;11.896;2022-12-07T05:06:25;96139.03;;;1.70;96.57
45345;BME280;31078;48.304;11.896;2022-12-07T05:08:52;96133.41;;;1.77;96.29
45345;BME280;31078;48.304;11.896;2022-12-07T05:11:21;96142.81;;;1.69;96.58
45345;BME280;31078;48.304;11.896;2022-12-07T05:14:09;96138.25;;;1.75;96.36
45345;BME280;31078;48.304;11.896;2022-12-07T05:16:36;96144.69;;;1.79;96.04
45345;BME280;31078;48.304;11.896;2022-12-07T05:19:03;96131.53;;;1.82;96.07
45345;BME280;31078;48.304;11.896;2022-12-07T05:21:30;96134.19;;;1.77;95.98
45345;BME280;31078;48.304;11.896;2022-12-07T05:23:59;96132.56;;;1.56;97.45
45345;BME280;31078;48.304;11.896;2022-12-07T05:26:29;96136.34;;;1.60;97.73
45345;BME280;31078;48.304;11.896;2022-12-07T05:28:57;96137.91;;;1.41;98.51
45345;BME280;31078;48.304;11.896;2022-12-07T05:31:25;96127.75;;;1.48;99.61
45345;BME280;31078;48.304;11.896;2022-12-07T05:33:53;96132.56;;;1.56;98.60
45345;BME280;31078;48.304;11.896;2022-12-07T05:36:19;96133.91;;;1.43;99.71
45345;BME280;31078;48.304;11.896;2022-12-07T05:38:46;96129.88;;;1.51;99.79
45345;BME280;31078;48.304;11.896;2022-12-07T05:41:15;96142.25;;;1.62;99.60
45345;BME280;31078;48.304;11.896;2022-12-07T05:43:57;96133.09;;;1.48;100.00
45345;BME280;31078;48.304;11.896;2022-12-07T05:46:23;96138.47;;;1.43;100.00
45345;BME280;31078;48.304;11.896;2022-12-07T05:48:50;96139.56;;;1.47;100.00
45345;BME280;31078;48.304;11.896;2022-12-07T05:51:17;96136.31;;;1.45;100.00
45345;BME280;31078;48.304;11.896;2022-12-07T05:53:44;96129.31;;;1.34;100.00
45345;BME280;31078;48.304;11.896;2022-12-07T05:56:11;96138.38;;;1.17;100.00
45345;BME280;31078;48.304;11.896;2022-12-07T05:58:37;96133.06;;;1.33;100.00
45345;BME280;31078;48.304;11.896;2022-12-07T06:01:23;96131.97;;;1.23;100.00
45345;BME280;31078;48.304;11.896;2022-12-07T06:03:49;96129.06;;;1.40;100.00
45345;BME280;31078;48.304;11.896;2022-12-07T06:06:17;96141.66;;;1.35;100.00
45345;BME280;31078;48.304;11.896;2022-12-07T06:08:44;96137.88;;;1.25;100.00
45345;BME280;31078;48.304;11.896;2022-12-07T06:11:11;96154.25;;;1.29;100.00
45345;BME280;31078;48.304;11.896;2022-12-07T06:13:55;96148.13;;;1.49;100.00
45345;BME280;31078;48.304;11.896;2022-12-07T06:16:23;96142.72;;;1.28;100.00
45345;BME280;31078;48.304;11.896;2022-12-07T06:18:52;96148.00;;;1.08;100.00
45345;BME280;31078;48.304;11.896;2022-12-07T06:21:19;96144.81;;;1.16;100.00
45345;BME280;31078;48.304;11.896;2022-12-07T06:23:46;96150.72;;;1.18;100.00
45345;BME280;31078;48.304;11.896;2022-12-07T06:26:13;96148.63;;;1.25;100.00
45345;BME280;31078;48.304;11.896;2022-12-07T06:28:40;96145.94;;;1.30;100.00
45345;BME280;31078;48.304;11.896;2022-12-07T06:31:07;96150.44;;;1.20;100.00
45345;BME280;31078;48.304;11.896;2022-12-07T06:33:36;96153.41;;;1.18;100.00
45345;BME280;31078;48.304;11.896;2022-12-07T06:36:03;96152.84;;;1.06;100.00
45345;BME280;31078;48.304;11.896;2022-12-07T06:38:34;96156.63;;;1.15;100.00
45345;BME280;31078;48.304;11.896;2022-12-07T06:41:01;96147.81;;;1.30;100.00
45345;BME280;31078;48.304;11.896;2022-12-07T06:43:32;96152.88;;;1.21;100.00
45345;BME280;31078;48.304;11.896;2022-12-07T06:45:58;96153.94;;;1.15;100.00
45345;BME280;31078;48.304;11.896;2022-12-07T06:48:25;96146.34;;;0.97;100.00
45345;BME280;31078;48.304;11.896;2022-12-07T06:50:53;96152.84;;;1.11;100.00
45345;BME280;31078;48.304;11.896;2022-12-07T06:53:20;96152.34;;;1.24;100.00
45345;BME280;31078;48.304;11.896;2022-12-07T06:55:47;96153.97;;;1.20;100.00
45345;BME280;31078;48.304;11.896;2022-12-07T06:58:14;96153.63;;;1.07;100.00
45345;BME280;31078;48.304;11.896;2022-12-07T07:00:41;96150.69;;;1.08;100.00
45345;BME280;31078;48.304;11.896;2022-12-07T07:03:07;96153.31;;;0.98;100.00
45345;BME280;31078;48.304;11.896;2022-12-07T07:05:34;96153.88;;;0.95;100.00
45345;BME280;31078;48.304;11.896;2022-12-07T07:08:02;96157.59;;;0.94;100.00
45345;BME280;31078;48.304;11.896;2022-12-07T07:10:30;96153.31;;;0.93;100.00
45345;BME280;31078;48.304;11.896;2022-12-07T07:12:56;96149.53;;;0.84;100.00
45345;BME280;31078;48.304;11.896;2022-12-07T07:15:23;96146.56;;;0.85;100.00
45345;BME280;31078;48.304;11.896;2022-12-07T07:17:50;96157.28;;;0.80;100.00
45345;BME280;31078;48.304;11.896;2022-12-07T07:20:17;96153.75;;;0.69;100.00
45345;BME280;31078;48.304;11.896;2022-12-07T07:22:44;96153.16;;;0.67;100.00
45345;BME280;31078;48.304;11.896;2022-12-07T07:25:13;96157.50;;;0.68;100.00
45345;BME280;31078;48.304;11.896;2022-12-07T07:27:39;96154.84;;;0.73;100.00
45345;BME280;31078;48.304;11.896;2022-12-07T07:30:07;96159.69;;;0.82;100.00
45345;BME280;31078;48.304;11.896;2022-12-07T07:32:34;96151.09;;;0.74;100.00
45345;BME280;31078;48.304;11.896;2022-12-07T07:35:01;96145.75;;;0.80;100.00
45345;BME280;31078;48.304;11.896;2022-12-07T07:37:27;96158.06;;;0.81;100.00
45345;BME280;31078;48.304;11.896;2022-12-07T07:39:54;96154.56;;;0.75;100.00
45345;BME280;31078;48.304;11.896;2022-12-07T07:42:23;96156.47;;;0.80;100.00
45345;BME280;31078;48.304;11.896;2022-12-07T07:44:50;96154.56;;;0.75;100.00
45345;BME280;31078;48.304;11.896;2022-12-07T07:47:17;96165.59;;;0.89;100.00
45345;BME280;31078;48.304;11.896;2022-12-07T07:49:43;96164.59;;;0.95;100.00
45345;BME280;31078;48.304;11.896;2022-12-07T07:52:18;96157.59;;;0.94;100.00
45345;BME280;31078;48.304;11.896;2022-12-07T07:54:45;96158.41;;;0.94;100.00
45345;BME280;31078;48.304;11.896;2022-12-07T07:57:12;96165.16;;;1.02;100.00
45345;BME280;31078;48.304;11.896;2022-12-07T07:59:40;96158.72;;;1.03;100.00
45345;BME280;31078;48.304;11.896;2022-12-07T08:02:09;96156.56;;;1.00;100.00
45345;BME280;31078;48.304;11.896;2022-12-07T08:04:40;96164.59;;;0.95;100.00
45345;BME280;31078;48.304;11.896;2022-12-07T08:07:07;96159.75;;;0.92;100.00
45345;BME280;31078;48.304;11.896;2022-12-07T08:09:34;96165.19;;;1.12;100.00
45345;BME280;31078;48.304;11.896;2022-12-07T08:12:01;96168.94;;;1.11;100.00
45345;BME280;31078;48.304;11.896;2022-12-07T08:14:27;96170.09;;;1.30;100.00
45345;BME280;31078;48.304;11.896;2022-12-07T08:16:56;96173.28;;;1.22;99.59
45345;BME280;31078;48.304;11.896;2022-12-07T08:19:23;96174.38;;;1.32;99.08
45345;BME280;31078;48.304;11.896;2022-12-07T08:21:50;96178.44;;;1.44;98.65
45345;BME280;31078;48.304;11.896;2022-12-07T08:24:26;96181.94;;;1.50;98.22
45345;BME280;31078;48.304;11.896;2022-12-07T08:26:55;96183.81;;;1.44;97.33
45345;BME280;31078;48.304;11.896;2022-12-07T08:29:22;96183.31;;;1.58;97.62
45345;BME280;31078;48.304;11.896;2022-12-07T08:31:51;96188.38;;;1.49;96.51
45345;BME280;31078;48.304;11.896;2022-12-07T08:34:20;96186.75;;;1.43;96.44
45345;BME280;31078;48.304;11.896;2022-12-07T08:36:49;96189.50;;;1.68;96.00
45345;BME280;31078;48.304;11.896;2022-12-07T08:39:15;96195.91;;;1.52;96.17
45345;BME280;31078;48.304;11.896;2022-12-07T08:41:42;96198.03;;;1.50;96.39
45345;BME280;31078;48.304;11.896;2022-12-07T08:44:09;96191.91;;;1.60;96.31
45345;BME280;31078;48.304;11.896;2022-12-07T08:46:38;96202.91;;;1.58;96.57
45345;BME280;31078;48.304;11.896;2022-12-07T08:49:09;96203.47;;;1.80;95.85
45345;BME280;31078;48.304;11.896;2022-12-07T08:51:40;96199.19;;;1.79;94.89
45345;BME280;31078;48.304;11.896;2022-12-07T08:54:10;96199.19;;;1.85;94.42
45345;BME280;31078;48.304;11.896;2022-12-07T08:56:38;96198.91;;;1.81;94.19
45345;BME280;31078;48.304;11.896;2022-12-07T08:59:12;96203.47;;;1.80;93.84
45345;BME280;31078;48.304;11.896;2022-12-07T09:01:41;96207.25;;;1.79;93.00
45345;BME280;31078;48.304;11.896;2022-12-07T09:04:08;96204.56;;;1.74;93.18
45345;BME280;31078;48.304;11.896;2022-12-07T09:06:35;96203.47;;;1.75;92.82
45345;BME280;31078;48.304;11.896;2022-12-07T09:09:03;96205.34;;;1.70;91.90
45345;BME280;31078;48.304;11.896;2022-12-07T09:11:32;96202.16;;;1.73;91.90
45345;BME280;31078;48.304;11.896;2022-12-07T09:13:58;96199.19;;;1.74;90.85
45345;BME280;31078;48.304;11.896;2022-12-07T09:16:25;96199.69;;;1.71;89.93
45345;BME280;31078;48.304;11.896;2022-12-07T09:18:52;96199.19;;;1.74;90.16
45345;BME280;31078;48.304;11.896;2022-12-07T09:21:19;96192.75;;;1.75;90.06
45345;BME280;31078;48.304;11.896;2022-12-07T09:23:47;96200.81;;;1.86;89.79
45345;BME280;31078;48.304;11.896;2022-12-07T09:26:15;96195.97;;;1.93;87.89
45345;BME280;31078;48.304;11.896;2022-12-07T09:28:42;96191.69;;;2.02;88.48
45345;BME280;31078;48.304;11.896;2022-12-07T09:31:09;96194.13;;;2.08;87.72
45345;BME280;31078;48.304;11.896;2022-12-07T09:33:35;96200.84;;;2.26;86.27
45345;BME280;31078;48.304;11.896;2022-12-07T09:36:03;96192.22;;;2.50;85.40
45345;BME280;31078;48.304;11.896;2022-12-07T09:38:31;96194.63;;;2.77;84.11
45345;BME280;31078;48.304;11.896;2022-12-07T09:41:08;96191.34;;;2.95;83.61
45345;BME280;31078;48.304;11.896;2022-12-07T09:43:38;96192.16;;;2.91;80.76
45345;BME280;31078;48.304;11.896;2022-12-07T09:46:09;96188.19;;;2.73;81.97
45345;BME280;31078;48.304;11.896;2022-12-07T09:48:42;96181.94;;;2.98;81.87
45345;BME280;31078;48.304;11.896;2022-12-07T09:51:14;96177.09;;;3.00;81.36
45345;BME280;31078;48.304;11.896;2022-12-07T09:53:44;96179.09;;;3.33;82.11
45345;BME280;31078;48.304;11.896;2022-12-07T09:56:12;96178.00;;;3.45;80.09
45345;BME280;31078;48.304;11.896;2022-12-07T09:58:42;96180.19;;;3.32;77.95
45345;BME280;31078;48.304;11.896;2022-12-07T10:01:11;96184.28;;;3.25;78.19
45345;BME280;31078;48.304;11.896;2022-12-07T10:03:40;96185.13;;;3.05;76.65
45345;BME280;31078;48.304;11.896;2022-12-07T10:06:11;96180.84;;;3.09;77.92
45345;BME280;31078;48.304;11.896;2022-12-07T10:08:39;96172.25;;;2.97;75.31
45345;BME280;31078;48.304;11.896;2022-12-07T10:11:06;96170.66;;;2.91;74.76
45345;BME280;31078;48.304;11.896;2022-12-07T10:13:37;96177.13;;;2.84;76.31
45345;BME280;31078;48.304;11.896;2022-12-07T10:16:09;96175.19;;;3.05;78.21
45345;BME280;31078;48.304;11.896;2022-12-07T10:18:54;96169.22;;;3.19;76.38
45345;BME280;31078;48.304;11.896;2022-12-07T10:21:22;96173.19;;;3.31;77.02
45345;BME280;31078;48.304;11.896;2022-12-07T10:24:00;96179.13;;;3.28;76.67
45345;BME280;31078;48.304;11.896;2022-12-07T10:26:31;96178.63;;;3.16;75.69
45345;BME280;31078;48.304;11.896;2022-12-07T10:29:00;96173.53;;;3.14;74.47
45345;BME280;31078;48.304;11.896;2022-12-07T10:31:29;96174.34;;;3.15;75.19
45345;BME280;31078;48.304;11.896;2022-12-07T10:33:58;96169.16;;;3.29;78.54
45345;BME280;31078;48.304;11.896;2022-12-07T10:36:27;96166.28;;;3.15;76.32
45345;BME280;31078;48.304;11.896;2022-12-07T10:39:00;96164.59;;;3.29;76.30
45345;BME280;31078;48.304;11.896;2022-12-07T10:41:27;96166.53;;;3.24;75.60
45345;BME280;31078;48.304;11.896;2022-12-07T10:43:55;96160.88;;;3.20;76.37
45345;BME280;31078;48.304;11.896;2022-12-07T10:46:41;96156.69;;;2.88;76.09
45345;BME280;31078;48.304;11.896;2022-12-07T10:49:36;96154.50;;;2.96;77.39
45345;BME280;31078;48.304;11.896;2022-12-07T10:52:13;96147.22;;;3.01;76.97
45345;BME280;31078;48.304;11.896;2022-12-07T10:54:47;96148.63;;;2.88;77.67
45345;BME280;31078;48.304;11.896;2022-12-07T10:57:25;96141.03;;;3.01;77.60
45345;BME280;31078;48.304;11.896;2022-12-07T11:00:01;96151.28;;;2.94;77.00
45345;BME280;31078;48.304;11.896;2022-12-07T11:05:34;96144.88;;;2.74;76.87
45345;BME280;31078;48.304;11.896;2022-12-07T11:08:15;96140.00;;;2.81;78.55
45345;BME280;31078;48.304;11.896;2022-12-07T11:10:51;96143.97;;;3.09;79.27
45345;BME280;31078;48.304;11.896;2022-12-07T11:13:28;96133.66;;;3.27;76.90
45345;BME280;31078;48.304;11.896;2022-12-07T11:16:11;96136.06;;;3.28;75.00
45345;BME280;31078;48.304;11.896;2022-12-07T11:18:51;96132.69;;;3.57;75.53
45345;BME280;31078;48.304;11.896;2022-12-07T11:21:29;96127.13;;;3.87;73.45
45345;BME280;31078;48.304;11.896;2022-12-07T11:24:02;96126.97;;;4.08;71.89
45345;BME280;31078;48.304;11.896;2022-12-07T11:26:47;96120.63;;;3.88;71.81
45345;BME280;31078;48.304;11.896;2022-12-07T11:29:33;96131.91;;;3.90;72.22
45345;BME280;31078;48.304;11.896;2022-12-07T11:32:14;96122.09;;;3.71;69.00
45345;BME280;31078;48.304;11.896;2022-12-07T11:34:54;96116.72;;;4.05;70.66
45345;BME280;31078;48.304;11.896;2022-12-07T11:37:31;96116.72;;;4.05;68.76
45345;BME280;31078;48.304;11.896;2022-12-07T11:40:01;96115.56;;;4.16;69.79
45345;BME280;31078;48.304;11.896;2022-12-07T11:42:33;96117.06;;;4.27;70.40
45345;BME280;31078;48.304;11.896;2022-12-07T11:45:10;96106.28;;;4.27;70.30
45345;BME280;31078;48.304;11.896;2022-12-07T11:47:45;96106.25;;;4.32;72.32
45345;BME280;31078;48.304;11.896;2022-12-07T11:50:32;96111.28;;;4.68;72.50
45345;BME280;31078;48.304;11.896;2022-12-07T11:53:05;96097.69;;;4.78;69.07
45345;BME280;31078;48.304;11.896;2022-12-07T11:55:41;96093.38;;;4.77;69.74
45345;BME280;31078;48.304;11.896;2022-12-07T11:58:20;96095.09;;;4.15;72.32
45345;BME280;31078;48.304;11.896;2022-12-07T12:00:50;96091.94;;;4.08;74.23
45345;BME280;31078;48.304;11.896;2022-12-07T12:03:23;96088.84;;;4.19;73.82
45345;BME280;31078;48.304;11.896;2022-12-07T12:05:55;96096.88;;;3.96;73.96
45345;BME280;31078;48.304;11.896;2022-12-07T12:08:27;96091.34;;;4.11;74.11
45345;BME280;31078;48.304;11.896;2022-12-07T12:10:57;96088.31;;;3.88;74.80
45345;BME280;31078;48.304;11.896;2022-12-07T12:13:46;96082.41;;;3.86;74.53
45345;BME280;31078;48.304;11.896;2022-12-07T12:16:37;96076.53;;;3.79;73.73
45345;BME280;31078;48.304;11.896;2022-12-07T12:19:22;96084.13;;;3.72;73.85
45345;BME280;31078;48.304;11.896;2022-12-07T12:21:55;96072.94;;;3.89;75.13
45345;BME280;31078;48.304;11.896;2022-12-07T12:24:26;96073.28;;;4.11;76.79
45345;BME280;31078;48.304;11.896;2022-12-07T12:26:57;96068.75;;;4.36;73.73
45345;BME280;31078;48.304;11.896;2022-12-07T12:29:31;96070.13;;;4.33;73.15
45345;BME280;31078;48.304;11.896;2022-12-07T12:32:12;96067.63;;;4.13;72.40
45345;BME280;31078;48.304;11.896;2022-12-07T12:34:42;96068.31;;;3.95;72.51
45345;BME280;31078;48.304;11.896;2022-12-07T12:37:42;96058.69;;;3.88;73.92
45345;BME280;31078;48.304;11.896;2022-12-07T12:40:52;96065.41;;;3.86;72.27
45345;BME280;31078;48.304;11.896;2022-12-07T12:43:48;96068.91;;;3.91;74.82
45345;BME280;31078;48.304;11.896;2022-12-07T12:46:48;96067.38;;;3.75;75.69
45345;BME280;31078;48.304;11.896;2022-12-07T12:49:35;96074.44;;;3.71;73.53
45345;BME280;31078;48.304;11.896;2022-12-07T12:55:18;96070.16;;;3.65;72.25
45345;BME280;31078;48.304;11.896;2022-12-07T13:03:54;96064.03;;;3.54;73.59
45345;BME280;31078;48.304;11.896;2022-12-07T13:06:33;96064.56;;;3.61;74.84
45345;BME280;31078;48.304;11.896;2022-12-07T13:09:01;96067.34;;;3.46;74.58
45345;BME280;31078;48.304;11.896;2022-12-07T13:11:30;96064.41;;;3.43;75.01
45345;BME280;31078;48.304;11.896;2022-12-07T13:17:09;96052.50;;;3.49;75.89
45345;BME280;31078;48.304;11.896;2022-12-07T13:19:58;96053.75;;;3.66;74.98
45345;BME280;31078;48.304;11.896;2022-12-07T13:22:54;96047.00;;;3.64;74.16
45345;BME280;31078;48.304;11.896;2022-12-07T13:25:35;96046.78;;;3.60;74.69
45345;BME280;31078;48.304;11.896;2022-12-07T13:28:10;96044.63;;;3.62;75.77
45345;BME280;31078;48.304;11.896;2022-12-07T13:30:47;96047.84;;;3.59;75.62
45345;BME280;31078;48.304;11.896;2022-12-07T13:33:18;96041.66;;;3.59;74.26